Norwegian Star — C6FR3 — position and weather

sailwx.info

Track history (hours):
 
Tides and Currents Weather Stations Pressure Air Temp Water Temp Dewpoint Dewpoint Depression Visibility Wind Speed Wind Dir Waves Ship Positions

Norwegian Star

Operator: Norwegian Cruise Line

Last reported at 2015-Jul-06 21:33 UTC. Time now 2015-Jul-06 22:13 UTC.
Position N 54°32' E 012°15'.

Type: Ship. MMSI: 311082000.

Date/timePositionNaut miles runAvg speedWind from/ knotsBaromVisibWave heightAir tempDewpointWater temp
2015-Jul-06 21:33N 54°32' E 012°15'1616.1
2015-Jul-06 20:33N 54°17' E 012°05'7 6.7
2015-Jul-06 19:33N 54°11' E 012°06'0 0.0
2015-Jul-06 18:33N 54°11' E 012°06'0 0.0
2015-Jul-06 17:21N 54°11' E 012°06'0 0.0
2015-Jul-06 16:33N 54°11' E 012°06'0 0.0
2015-Jul-06 15:33N 54°11' E 012°06'0 0.0
2015-Jul-06 14:27N 54°11' E 012°06'0 0.0
2015-Jul-06 13:33N 54°11' E 012°06'0 0.0
2015-Jul-06 12:33N 54°11' E 012°06'0 0.0
2015-Jul-06 11:33N 54°11' E 012°06'0 0.0
2015-Jul-06 10:33N 54°11' E 012°06'0 0.0
2015-Jul-06 09:27N 54°11' E 012°06'0 0.0
2015-Jul-06 08:33N 54°11' E 012°06'0 0.0
2015-Jul-06 07:33N 54°11' E 012°06'0 0.0
2015-Jul-06 06:33N 54°11' E 012°06'0 0.0
2015-Jul-06 05:33N 54°11' E 012°06'2 1.6
2015-Jul-06 04:33N 54°12' E 012°05'1312.7
2015-Jul-06 03:33N 54°21' E 011°49'1414.0
2015-Jul-06 02:33N 54°29' E 011°29'1616.2
2015-Jul-06 01:33N 54°37' E 011°05'814.3
2015-Jul-06 01:00N 54°42' E 010°54'716.0 260 / 301012.0 2.2 1.519.014.016.0
2015-Jul-06 00:33N 54°49' E 010°52'1514.4
2015-Jul-05 23:30N 55°03' E 011°02'4615.4
2015-Jul-05 20:32N 55°48' E 010°48'3717.1
2015-Jul-05 18:21N 56°07' E 011°46'1620.3
2015-Jul-05 17:33N 56°13' E 012°13'1818.1
2015-Jul-05 16:33N 56°03' E 012°40'1615.9
2015-Jul-05 15:33N 55°47' E 012°43'5 4.9
2015-Jul-05 14:33N 55°43' E 012°37'0 0.0
2015-Jul-05 13:33N 55°43' E 012°37'0 0.0
2015-Jul-05 12:33N 55°43' E 012°37'0 0.0
2015-Jul-05 11:33N 55°43' E 012°37'0 0.0
2015-Jul-05 10:32N 55°43' E 012°37'0 0.0
2015-Jul-05 09:32N 55°43' E 012°37'0 0.0
2015-Jul-05 08:32N 55°43' E 012°37'0 0.0
2015-Jul-05 07:32N 55°43' E 012°37'0 0.0
2015-Jul-05 06:32N 55°43' E 012°37'0 0.0
2015-Jul-05 05:32N 55°43' E 012°37'0 0.0
2015-Jul-05 04:34N 55°43' E 012°37'6 6.4
2015-Jul-05 03:33N 55°49' E 012°42'1414.1
2015-Jul-05 02:33N 56°03' E 012°39'1514.8
2015-Jul-05 01:33N 56°12' E 012°18'1018.1
2015-Jul-05 01:00N 56°12' E 012°00'715.5 060 / 131016.0 5.4 0.520.015.016.0
2015-Jul-05 00:33N 56°08' E 011°50'1615.8
2015-Jul-04 23:33N 56°07' E 011°22'1514.5
2015-Jul-04 22:33N 55°58' E 011°02'1919.4
2015-Jul-04 21:34N 55°40' E 010°47'2121.0
2015-Jul-04 20:33N 55°21' E 011°02'2019.9
2015-Jul-04 19:33N 55°01' E 011°02'1918.8
2015-Jul-04 18:33N 54°43' E 010°53'2020.3
2015-Jul-04 17:33N 54°32' E 011°22'2019.8
2015-Jul-04 16:33N 54°26' E 011°55'1716.9
2015-Jul-04 15:32N 54°37' E 012°18'1919.8
2015-Jul-04 14:33N 54°47' E 012°46'1118.5
2015-Jul-04 14:00N 54°54' E 013°00'1125.4 130 / 191018.0 5.4 1.022.017.016.0
2015-Jul-04 13:33N 54°55' E 013°19'2120.9
2015-Jul-04 12:34N 55°03' E 013°53'2020.1
2015-Jul-04 11:34N 55°16' E 014°19'2020.5
2015-Jul-04 10:34N 55°30' E 014°45'2120.9
2015-Jul-04 09:34N 55°39' E 015°18'2121.1
2015-Jul-04 08:34N 55°50' E 015°51'2121.0
2015-Jul-04 07:34N 56°01' E 016°23'13220.1
2015-Jul-04 01:00N 58°00' E 018°06'11520.0 220 / 191018.0 5.4 2.018.013.016.0
2015-Jul-03 19:16N 59°42' E 019°49'1517.9
2015-Jul-03 18:27N 59°46' E 019°21'3711.1
2015-Jul-03 15:06N 59°22' E 018°25'910.3
2015-Jul-03 14:11N 59°19' E 018°07'0 0.6
2015-Jul-03 13:31N 59°19' E 018°06'0 0.0
2015-Jul-03 12:31N 59°19' E 018°06'0 0.0
2015-Jul-03 11:31N 59°19' E 018°06'1 1.9
2015-Jul-03 11:00N 59°18' E 018°06'1 2.1 260 / 91024.0 5.4 28.024.016.0
2015-Jul-03 10:31N 59°19' E 018°06'0 0.0
2015-Jul-03 09:31N 59°19' E 018°06'0 0.0
2015-Jul-03 08:31N 59°19' E 018°06'0 0.0
2015-Jul-03 07:31N 59°19' E 018°06'0 0.0
2015-Jul-03 06:31N 59°19' E 018°06'0 0.3
2015-Jul-03 05:33N 59°19' E 018°07'8 8.4
2015-Jul-03 04:34N 59°22' E 018°22'4911.1
2015-Jul-03 00:10N 59°48' E 019°44'211.8
2015-Jul-03 00:00N 59°48' E 019°48'919.0 220 / 301024.0 5.4 1.018.013.016.0
2015-Jul-02 23:31N 59°41' E 019°58'1426.3
2015-Jul-02 23:00N 59°36' E 020°24'2 4.4 230 / 301024.0 5.4 1.018.013.016.0
2015-Jul-02 22:33N 59°36' E 020°28'1716.6
2015-Jul-02 21:33N 59°32' E 020°59'1616.3
2015-Jul-02 20:33N 59°27' E 021°30'1616.4
2015-Jul-02 19:33N 59°28' E 022°02'1616.0
2015-Jul-02 18:33N 59°32' E 022°33'1616.4
2015-Jul-02 17:34N 59°35' E 023°04'1717.3
2015-Jul-02 16:33N 59°40' E 023°38'2117.7
2015-Jul-02 15:21N 59°47' E 024°18'29 4.9
2015-Jul-02 09:26N 60°09' E 024°55'0 0.1
2015-Jul-02 03:25N 60°09' E 024°54'8 9.5
2015-Jul-02 02:33N 60°01' E 024°56'1312.8
2015-Jul-02 01:31N 59°56' E 025°21'1515.3
2015-Jul-02 00:33N 59°56' E 025°50'1120.2
2015-Jul-02 00:00N 60°00' E 026°12'4 9.8 340 / 51022.010.8 16.011.015.0
2015-Jul-01 23:33N 59°60' E 026°21'1119.0
2015-Jul-01 23:00N 60°00' E 026°42'612.8 350 / 91022.010.8 16.011.015.0
2015-Jul-01 22:33N 60°00' E 026°53'916.7
2015-Jul-01 22:00N 60°00' E 027°12'1124.3 350 / 51022.010.8 15.010.015.0
2015-Jul-01 21:31N 60°08' E 027°29'6019.4
2015-Jul-01 18:27N 60°02' E 029°28'1011.3
2015-Jul-01 17:33N 59°58' E 029°47'1010.3
2015-Jul-01 16:33N 59°57' E 030°07'2 2.1
2015-Jul-01 15:33N 59°57' E 030°12'0 0.0
2015-Jul-01 14:33N 59°57' E 030°12'0 0.0
2015-Jul-01 13:33N 59°57' E 030°12'0 0.0
2015-Jul-01 12:33N 59°57' E 030°12'0 0.0
2015-Jul-01 11:33N 59°57' E 030°12'0 0.0
2015-Jul-01 10:32N 59°57' E 030°12'0 0.0
2015-Jul-01 09:32N 59°57' E 030°12'0 0.0
2015-Jul-01 08:32N 59°57' E 030°12'0 0.0
2015-Jul-01 07:32N 59°57' E 030°12'0 0.0
2015-Jul-01 06:32N 59°57' E 030°12'0 0.0
2015-Jul-01 05:32N 59°57' E 030°12'0 0.0
2015-Jul-01 04:32N 59°57' E 030°12'0 0.0
2015-Jul-01 03:32N 59°57' E 030°12'0 0.0
2015-Jul-01 02:32N 59°57' E 030°12'0 0.0
2015-Jul-01 01:32N 59°57' E 030°12'0 0.0
2015-Jul-01 00:32N 59°57' E 030°12'0 0.0
2015-Jun-30 23:32N 59°57' E 030°12'0 0.0
2015-Jun-30 22:32N 59°57' E 030°12'0 0.0
2015-Jun-30 21:32N 59°57' E 030°12'0 0.0
2015-Jun-30 20:32N 59°57' E 030°12'0 0.0
2015-Jun-30 19:32N 59°57' E 030°12'0 0.0
2015-Jun-30 18:32N 59°57' E 030°12'0 0.0
2015-Jun-30 17:32N 59°57' E 030°12'0 0.0
2015-Jun-30 16:32N 59°57' E 030°12'0 0.0
2015-Jun-30 15:32N 59°57' E 030°12'0 0.0
2015-Jun-30 14:29N 59°57' E 030°12'0 0.0
2015-Jun-30 13:32N 59°57' E 030°12'0 0.0
2015-Jun-30 12:32N 59°57' E 030°12'0 0.0
2015-Jun-30 11:32N 59°57' E 030°12'0 0.0
2015-Jun-30 10:32N 59°57' E 030°12'0 0.0
2015-Jun-30 09:32N 59°57' E 030°12'0 0.0
2015-Jun-30 08:32N 59°57' E 030°12'0 0.0
2015-Jun-30 07:32N 59°57' E 030°12'0 0.0
2015-Jun-30 06:32N 59°57' E 030°12'0 0.0
2015-Jun-30 05:32N 59°57' E 030°12'0 0.0
2015-Jun-30 04:33N 59°57' E 030°12'7 6.5
2015-Jun-30 03:33N 59°56' E 029°59'1110.6
2015-Jun-30 02:33N 59°60' E 029°40'6013.7
2015-Jun-29 22:09N 60°09' E 027°40'2314.5
2015-Jun-29 20:32N 59°58' E 026°59'1514.5
2015-Jun-29 19:32N 59°58' E 026°30'1414.8
2015-Jun-29 18:33N 59°54' E 026°02'1514.8
2015-Jun-29 17:33N 59°50' E 025°34'1514.9
2015-Jun-29 16:33N 59°46' E 025°06'1514.2
2015-Jun-29 15:31N 59°37' E 024°42'1010.6
2015-Jun-29 14:32N 59°27' E 024°46'0 0.0
2015-Jun-29 12:28N 59°27' E 024°46'0 0.0
2015-Jun-29 11:28N 59°27' E 024°46'0 0.0
2015-Jun-29 10:25N 59°27' E 024°46'0 0.0
2015-Jun-29 08:28N 59°27' E 024°46'0 0.0
2015-Jun-29 07:16N 59°27' E 024°46'0 0.0
2015-Jun-29 06:19N 59°27' E 024°46'0 0.2
2015-Jun-29 05:33N 59°27' E 024°46'7 7.3
2015-Jun-29 04:33N 59°30' E 024°33'1414.1
2015-Jun-29 03:34N 59°29' E 024°05'1615.8
2015-Jun-29 02:32N 59°25' E 023°34'1616.3
2015-Jun-29 01:33N 59°22' E 023°03'5 9.1
2015-Jun-29 01:00N 59°24' E 022°54'1329.4 180 / 191014.010.8 1.015.010.015.0
2015-Jun-29 00:33N 59°18' E 022°31'5 9.5
2015-Jun-29 00:00N 59°18' E 022°42'2148.6 180 / 131014.010.8 1.015.010.015.0
2015-Jun-28 23:33N 59°12' E 022°02'1616.4
2015-Jun-28 22:33N 59°02' E 021°38'915.2
2015-Jun-28 22:00N 58°54' E 021°30'6016.7 200 / 101014.010.8 0.515.010.015.0
2015-Jun-28 18:25N 58°04' E 020°27'1416.5
2015-Jun-28 17:33N 57°52' E 020°14'2416.9
2015-Jun-28 16:10N 57°31' E 019°53'1017.3
2015-Jun-28 15:34N 57°22' E 019°43'1717.2
2015-Jun-28 14:33N 57°10' E 019°20'14417.4
2015-Jun-28 06:17N 55°43' E 015°53'1317.7
2015-Jun-28 05:33N 55°38' E 015°32'1817.7
2015-Jun-28 04:33N 55°30' E 015°04'1717.3
2015-Jun-28 03:33N 55°22' E 014°37'1717.4
2015-Jun-28 02:33N 55°09' E 014°18'1717.0
2015-Jun-28 01:33N 54°59' E 013°54'5217.4
2015-Jun-27 22:33N 54°40' E 012°29'1616.0
2015-Jun-27 21:33N 54°28' E 012°13'1414.3
2015-Jun-27 20:33N 54°14' E 012°04'4 3.7
2015-Jun-27 19:33N 54°10' E 012°06'0 0.0
2015-Jun-27 18:33N 54°10' E 012°06'0 0.0
2015-Jun-27 17:33N 54°10' E 012°06'0 0.0
2015-Jun-27 16:33N 54°10' E 012°06'0 0.0
2015-Jun-27 15:33N 54°10' E 012°06'0 0.0
2015-Jun-27 14:33N 54°10' E 012°06'0 0.0
2015-Jun-27 13:33N 54°10' E 012°06'0 0.0
2015-Jun-27 12:33N 54°10' E 012°06'0 0.0
2015-Jun-27 11:27N 54°10' E 012°06'0 0.0
2015-Jun-27 10:33N 54°10' E 012°06'0 0.0
2015-Jun-27 09:33N 54°10' E 012°06'0 0.0
2015-Jun-27 08:33N 54°10' E 012°06'0 0.0
2015-Jun-27 07:27N 54°10' E 012°06'0 0.0
2015-Jun-27 06:33N 54°10' E 012°06'0 0.0
2015-Jun-27 05:33N 54°10' E 012°06'4 4.3
2015-Jun-27 04:33N 54°14' E 012°03'1515.0
2015-Jun-27 03:33N 54°23' E 011°42'1717.2
2015-Jun-27 02:33N 54°33' E 011°18'1716.6
2015-Jun-27 01:33N 54°40' E 010°52'1515.2
2015-Jun-27 00:33N 54°55' E 010°54'1615.6
2015-Jun-26 23:32N 55°11' E 011°03'  
Track history (hours):
 
Tides and Currents Weather Stations Pressure Air Temp Water Temp Dewpoint Dewpoint Depression Visibility Wind Speed Wind Dir Waves Ship Positions

Norwegian Star

Operator: Norwegian Cruise Line

Last reported at 2015-Jul-06 21:33 UTC. Time now 2015-Jul-06 22:13 UTC.
Position N 54°32' E 012°15'.

Type: Ship. MMSI: 311082000.

Date/timePositionNaut miles runAvg speedWind from/ knotsBaromVisibWave heightAir tempDewpointWater temp
2015-Jul-06 21:33N 54°32' E 012°15'1616.1
2015-Jul-06 20:33N 54°17' E 012°05'7 6.7
2015-Jul-06 19:33N 54°11' E 012°06'0 0.0
2015-Jul-06 18:33N 54°11' E 012°06'0 0.0
2015-Jul-06 17:21N 54°11' E 012°06'0 0.0
2015-Jul-06 16:33N 54°11' E 012°06'0 0.0
2015-Jul-06 15:33N 54°11' E 012°06'0 0.0
2015-Jul-06 14:27N 54°11' E 012°06'0 0.0
2015-Jul-06 13:33N 54°11' E 012°06'0 0.0
2015-Jul-06 12:33N 54°11' E 012°06'0 0.0
2015-Jul-06 11:33N 54°11' E 012°06'0 0.0
2015-Jul-06 10:33N 54°11' E 012°06'0 0.0
2015-Jul-06 09:27N 54°11' E 012°06'0 0.0
2015-Jul-06 08:33N 54°11' E 012°06'0 0.0
2015-Jul-06 07:33N 54°11' E 012°06'0 0.0
2015-Jul-06 06:33N 54°11' E 012°06'0 0.0
2015-Jul-06 05:33N 54°11' E 012°06'2 1.6
2015-Jul-06 04:33N 54°12' E 012°05'1312.7
2015-Jul-06 03:33N 54°21' E 011°49'1414.0
2015-Jul-06 02:33N 54°29' E 011°29'1616.2
2015-Jul-06 01:33N 54°37' E 011°05'814.3
2015-Jul-06 01:00N 54°42' E 010°54'716.0 260 / 301012.0 2.2 1.519.014.016.0
2015-Jul-06 00:33N 54°49' E 010°52'1514.4
2015-Jul-05 23:30N 55°03' E 011°02'4615.4
2015-Jul-05 20:32N 55°48' E 010°48'3717.1
2015-Jul-05 18:21N 56°07' E 011°46'1620.3
2015-Jul-05 17:33N 56°13' E 012°13'1818.1
2015-Jul-05 16:33N 56°03' E 012°40'1615.9
2015-Jul-05 15:33N 55°47' E 012°43'5 4.9
2015-Jul-05 14:33N 55°43' E 012°37'0 0.0
2015-Jul-05 13:33N 55°43' E 012°37'0 0.0
2015-Jul-05 12:33N 55°43' E 012°37'0 0.0
2015-Jul-05 11:33N 55°43' E 012°37'0 0.0
2015-Jul-05 10:32N 55°43' E 012°37'0 0.0
2015-Jul-05 09:32N 55°43' E 012°37'0 0.0
2015-Jul-05 08:32N 55°43' E 012°37'0 0.0
2015-Jul-05 07:32N 55°43' E 012°37'0 0.0
2015-Jul-05 06:32N 55°43' E 012°37'0 0.0
2015-Jul-05 05:32N 55°43' E 012°37'0 0.0
2015-Jul-05 04:34N 55°43' E 012°37'6 6.4
2015-Jul-05 03:33N 55°49' E 012°42'1414.1
2015-Jul-05 02:33N 56°03' E 012°39'1514.8
2015-Jul-05 01:33N 56°12' E 012°18'1018.1
2015-Jul-05 01:00N 56°12' E 012°00'715.5 060 / 131016.0 5.4 0.520.015.016.0
2015-Jul-05 00:33N 56°08' E 011°50'1615.8
2015-Jul-04 23:33N 56°07' E 011°22'1514.5
2015-Jul-04 22:33N 55°58' E 011°02'1919.4
2015-Jul-04 21:34N 55°40' E 010°47'2121.0
2015-Jul-04 20:33N 55°21' E 011°02'2019.9
2015-Jul-04 19:33N 55°01' E 011°02'1918.8
2015-Jul-04 18:33N 54°43' E 010°53'2020.3
2015-Jul-04 17:33N 54°32' E 011°22'2019.8
2015-Jul-04 16:33N 54°26' E 011°55'1716.9
2015-Jul-04 15:32N 54°37' E 012°18'1919.8
2015-Jul-04 14:33N 54°47' E 012°46'1118.5
2015-Jul-04 14:00N 54°54' E 013°00'1125.4 130 / 191018.0 5.4 1.022.017.016.0
2015-Jul-04 13:33N 54°55' E 013°19'2120.9
2015-Jul-04 12:34N 55°03' E 013°53'2020.1
2015-Jul-04 11:34N 55°16' E 014°19'2020.5
2015-Jul-04 10:34N 55°30' E 014°45'2120.9
2015-Jul-04 09:34N 55°39' E 015°18'2121.1
2015-Jul-04 08:34N 55°50' E 015°51'2121.0
2015-Jul-04 07:34N 56°01' E 016°23'13220.1
2015-Jul-04 01:00N 58°00' E 018°06'11520.0 220 / 191018.0 5.4 2.018.013.016.0
2015-Jul-03 19:16N 59°42' E 019°49'1517.9
2015-Jul-03 18:27N 59°46' E 019°21'3711.1
2015-Jul-03 15:06N 59°22' E 018°25'910.3
2015-Jul-03 14:11N 59°19' E 018°07'0 0.6
2015-Jul-03 13:31N 59°19' E 018°06'0 0.0
2015-Jul-03 12:31N 59°19' E 018°06'0 0.0
2015-Jul-03 11:31N 59°19' E 018°06'1 1.9
2015-Jul-03 11:00N 59°18' E 018°06'1 2.1 260 / 91024.0 5.4 28.024.016.0
2015-Jul-03 10:31N 59°19' E 018°06'0 0.0
2015-Jul-03 09:31N 59°19' E 018°06'0 0.0
2015-Jul-03 08:31N 59°19' E 018°06'0 0.0
2015-Jul-03 07:31N 59°19' E 018°06'0 0.0
2015-Jul-03 06:31N 59°19' E 018°06'0 0.3
2015-Jul-03 05:33N 59°19' E 018°07'8 8.4
2015-Jul-03 04:34N 59°22' E 018°22'4911.1
2015-Jul-03 00:10N 59°48' E 019°44'211.8
2015-Jul-03 00:00N 59°48' E 019°48'919.0 220 / 301024.0 5.4 1.018.013.016.0
2015-Jul-02 23:31N 59°41' E 019°58'1426.3
2015-Jul-02 23:00N 59°36' E 020°24'2 4.4 230 / 301024.0 5.4 1.018.013.016.0
2015-Jul-02 22:33N 59°36' E 020°28'1716.6
2015-Jul-02 21:33N 59°32' E 020°59'1616.3
2015-Jul-02 20:33N 59°27' E 021°30'1616.4
2015-Jul-02 19:33N 59°28' E 022°02'1616.0
2015-Jul-02 18:33N 59°32' E 022°33'1616.4
2015-Jul-02 17:34N 59°35' E 023°04'1717.3
2015-Jul-02 16:33N 59°40' E 023°38'2117.7
2015-Jul-02 15:21N 59°47' E 024°18'29 4.9
2015-Jul-02 09:26N 60°09' E 024°55'0 0.1
2015-Jul-02 03:25N 60°09' E 024°54'8 9.5
2015-Jul-02 02:33N 60°01' E 024°56'1312.8
2015-Jul-02 01:31N 59°56' E 025°21'1515.3
2015-Jul-02 00:33N 59°56' E 025°50'1120.2
2015-Jul-02 00:00N 60°00' E 026°12'4 9.8 340 / 51022.010.8 16.011.015.0
2015-Jul-01 23:33N 59°60' E 026°21'1119.0
2015-Jul-01 23:00N 60°00' E 026°42'612.8 350 / 91022.010.8 16.011.015.0
2015-Jul-01 22:33N 60°00' E 026°53'916.7
2015-Jul-01 22:00N 60°00' E 027°12'1124.3 350 / 51022.010.8 15.010.015.0
2015-Jul-01 21:31N 60°08' E 027°29'6019.4
2015-Jul-01 18:27N 60°02' E 029°28'1011.3
2015-Jul-01 17:33N 59°58' E 029°47'1010.3
2015-Jul-01 16:33N 59°57' E 030°07'2 2.1
2015-Jul-01 15:33N 59°57' E 030°12'0 0.0
2015-Jul-01 14:33N 59°57' E 030°12'0 0.0
2015-Jul-01 13:33N 59°57' E 030°12'0 0.0
2015-Jul-01 12:33N 59°57' E 030°12'0 0.0
2015-Jul-01 11:33N 59°57' E 030°12'0 0.0
2015-Jul-01 10:32N 59°57' E 030°12'0 0.0
2015-Jul-01 09:32N 59°57' E 030°12'0 0.0
2015-Jul-01 08:32N 59°57' E 030°12'0 0.0
2015-Jul-01 07:32N 59°57' E 030°12'0 0.0
2015-Jul-01 06:32N 59°57' E 030°12'0 0.0
2015-Jul-01 05:32N 59°57' E 030°12'0 0.0
2015-Jul-01 04:32N 59°57' E 030°12'0 0.0
2015-Jul-01 03:32N 59°57' E 030°12'0 0.0
2015-Jul-01 02:32N 59°57' E 030°12'0 0.0
2015-Jul-01 01:32N 59°57' E 030°12'0 0.0
2015-Jul-01 00:32N 59°57' E 030°12'0 0.0
2015-Jun-30 23:32N 59°57' E 030°12'0 0.0
2015-Jun-30 22:32N 59°57' E 030°12'0 0.0
2015-Jun-30 21:32N 59°57' E 030°12'0 0.0
2015-Jun-30 20:32N 59°57' E 030°12'0 0.0
2015-Jun-30 19:32N 59°57' E 030°12'0 0.0
2015-Jun-30 18:32N 59°57' E 030°12'0 0.0
2015-Jun-30 17:32N 59°57' E 030°12'0 0.0
2015-Jun-30 16:32N 59°57' E 030°12'0 0.0
2015-Jun-30 15:32N 59°57' E 030°12'0 0.0
2015-Jun-30 14:29N 59°57' E 030°12'0 0.0
2015-Jun-30 13:32N 59°57' E 030°12'0 0.0
2015-Jun-30 12:32N 59°57' E 030°12'0 0.0
2015-Jun-30 11:32N 59°57' E 030°12'0 0.0
2015-Jun-30 10:32N 59°57' E 030°12'0 0.0
2015-Jun-30 09:32N 59°57' E 030°12'0 0.0
2015-Jun-30 08:32N 59°57' E 030°12'0 0.0
2015-Jun-30 07:32N 59°57' E 030°12'0 0.0
2015-Jun-30 06:32N 59°57' E 030°12'0 0.0
2015-Jun-30 05:32N 59°57' E 030°12'0 0.0
2015-Jun-30 04:33N 59°57' E 030°12'7 6.5
2015-Jun-30 03:33N 59°56' E 029°59'1110.6
2015-Jun-30 02:33N 59°60' E 029°40'6013.7
2015-Jun-29 22:09N 60°09' E 027°40'2314.5
2015-Jun-29 20:32N 59°58' E 026°59'1514.5
2015-Jun-29 19:32N 59°58' E 026°30'1414.8
2015-Jun-29 18:33N 59°54' E 026°02'1514.8
2015-Jun-29 17:33N 59°50' E 025°34'1514.9
2015-Jun-29 16:33N 59°46' E 025°06'1514.2
2015-Jun-29 15:31N 59°37' E 024°42'1010.6
2015-Jun-29 14:32N 59°27' E 024°46'0 0.0
2015-Jun-29 12:28N 59°27' E 024°46'0 0.0
2015-Jun-29 11:28N 59°27' E 024°46'0 0.0
2015-Jun-29 10:25N 59°27' E 024°46'0 0.0
2015-Jun-29 08:28N 59°27' E 024°46'0 0.0
2015-Jun-29 07:16N 59°27' E 024°46'0 0.0
2015-Jun-29 06:19N 59°27' E 024°46'0 0.2
2015-Jun-29 05:33N 59°27' E 024°46'7 7.3
2015-Jun-29 04:33N 59°30' E 024°33'1414.1
2015-Jun-29 03:34N 59°29' E 024°05'1615.8
2015-Jun-29 02:32N 59°25' E 023°34'1616.3
2015-Jun-29 01:33N 59°22' E 023°03'5 9.1
2015-Jun-29 01:00N 59°24' E 022°54'1329.4 180 / 191014.010.8 1.015.010.015.0
2015-Jun-29 00:33N 59°18' E 022°31'5 9.5
2015-Jun-29 00:00N 59°18' E 022°42'2148.6 180 / 131014.010.8 1.015.010.015.0
2015-Jun-28 23:33N 59°12' E 022°02'1616.4
2015-Jun-28 22:33N 59°02' E 021°38'915.2
2015-Jun-28 22:00N 58°54' E 021°30'6016.7 200 / 101014.010.8 0.515.010.015.0
2015-Jun-28 18:25N 58°04' E 020°27'1416.5
2015-Jun-28 17:33N 57°52' E 020°14'2416.9
2015-Jun-28 16:10N 57°31' E 019°53'1017.3
2015-Jun-28 15:34N 57°22' E 019°43'1717.2
2015-Jun-28 14:33N 57°10' E 019°20'14417.4
2015-Jun-28 06:17N 55°43' E 015°53'1317.7
2015-Jun-28 05:33N 55°38' E 015°32'1817.7
2015-Jun-28 04:33N 55°30' E 015°04'1717.3
2015-Jun-28 03:33N 55°22' E 014°37'1717.4
2015-Jun-28 02:33N 55°09' E 014°18'1717.0
2015-Jun-28 01:33N 54°59' E 013°54'5217.4
2015-Jun-27 22:33N 54°40' E 012°29'1616.0
2015-Jun-27 21:33N 54°28' E 012°13'1414.3
2015-Jun-27 20:33N 54°14' E 012°04'4 3.7
2015-Jun-27 19:33N 54°10' E 012°06'0 0.0
2015-Jun-27 18:33N 54°10' E 012°06'0 0.0
2015-Jun-27 17:33N 54°10' E 012°06'0 0.0
2015-Jun-27 16:33N 54°10' E 012°06'0 0.0
2015-Jun-27 15:33N 54°10' E 012°06'0 0.0
2015-Jun-27 14:33N 54°10' E 012°06'0 0.0
2015-Jun-27 13:33N 54°10' E 012°06'0 0.0
2015-Jun-27 12:33N 54°10' E 012°06'0 0.0
2015-Jun-27 11:27N 54°10' E 012°06'0 0.0
2015-Jun-27 10:33N 54°10' E 012°06'0 0.0
2015-Jun-27 09:33N 54°10' E 012°06'0 0.0
2015-Jun-27 08:33N 54°10' E 012°06'0 0.0
2015-Jun-27 07:27N 54°10' E 012°06'0 0.0
2015-Jun-27 06:33N 54°10' E 012°06'0 0.0
2015-Jun-27 05:33N 54°10' E 012°06'4 4.3
2015-Jun-27 04:33N 54°14' E 012°03'1515.0
2015-Jun-27 03:33N 54°23' E 011°42'1717.2
2015-Jun-27 02:33N 54°33' E 011°18'1716.6
2015-Jun-27 01:33N 54°40' E 010°52'1515.2
2015-Jun-27 00:33N 54°55' E 010°54'1615.6
2015-Jun-26 23:32N 55°11' E 011°03'  

Dump ship's entire track history